Time;durP1;ratioP1;P1;durP2;ratioP2;P2;SDS_P1;SDS_P2;PMS_P1;PMS_P2;Temp;Humidity;BMP_temperature;BMP_pressure;BME280_temperature;BME280_humidity;BME280_pressure;Samples;Min_cycle;Max_cycle;Signal;HPM_P1;HPM_P2
2021/09/10 00:00:50;;;;;;;;;;;19.80;99.90;;;;;;5079854;28;19927;-76
2021/09/10 00:03:16;;;;;;;;;;;19.80;99.90;;;;;;5093456;28;19951;-76
2021/09/10 00:05:41;;;;;;;;;;;19.70;99.90;;;;;;5078041;28;20009;-76
2021/09/10 00:08:07;;;;;;;;;;;19.70;99.90;;;;;;5088768;28;19913;-76
2021/09/10 00:10:32;;;;;;;;;;;19.70;99.90;;;;;;5077434;28;19912;-75
2021/09/10 00:12:58;;;;;;;;;;;19.70;99.90;;;;;;5078484;28;20646;-77
2021/09/10 00:15:24;;;;;;;;;;;19.70;99.90;;;;;;5078621;28;19970;-76
2021/09/10 00:17:49;;;;;;;;;;;19.80;99.90;;;;;;5096114;28;19923;-77
2021/09/10 00:20:15;;;;;;;;;;;19.70;99.90;;;;;;5095721;28;19920;-76
2021/09/10 00:22:41;;;;;;;;;;;19.70;99.90;;;;;;5096418;28;19912;-76
2021/09/10 00:25:07;;;;;;;;;;;19.60;99.90;;;;;;5076520;28;19919;-76
2021/09/10 00:27:32;;;;;;;;;;;19.60;99.90;;;;;;5096628;28;20266;-76
2021/09/10 00:29:58;;;;;;;;;;;19.60;99.90;;;;;;5093752;28;20226;-76
2021/09/10 00:32:23;;;;;;;;;;;19.60;99.90;;;;;;5078355;28;19952;-77
2021/09/10 00:34:49;;;;;;;;;;;19.50;99.90;;;;;;5077191;28;19916;-77
2021/09/10 00:37:14;;;;;;;;;;;19.50;99.90;;;;;;5096174;28;19920;-76
2021/09/10 00:39:40;;;;;;;;;;;19.50;99.90;;;;;;5076832;28;19961;-76
2021/09/10 00:42:06;;;;;;;;;;;19.40;99.90;;;;;;5076949;28;19919;-76
2021/09/10 00:44:31;;;;;;;;;;;19.40;99.90;;;;;;5078085;28;19923;-76
2021/09/10 00:46:57;;;;;;;;;;;19.40;99.90;;;;;;5095489;28;19975;-76
2021/09/10 00:49:22;;;;;;;;;;;19.40;99.90;;;;;;5077754;28;20314;-76
2021/09/10 00:51:48;;;;;;;;;;;19.40;99.90;;;;;;5093077;28;20668;-76
2021/09/10 00:54:13;;;;;;;;;;;19.40;99.90;;;;;;5079958;28;19923;-77
2021/09/10 00:56:39;;;;;;;;;;;19.40;99.90;;;;;;5077509;28;19912;-76
2021/09/10 00:59:05;;;;;;;;;;;19.40;99.90;;;;;;5095940;28;19927;-76
2021/09/10 01:01:31;;;;;;;;;;;19.30;99.90;;;;;;5095195;28;20011;-76
2021/09/10 01:03:57;;;;;;;;;;;19.30;99.90;;;;;;5095135;28;19913;-75
2021/09/10 01:06:23;;;;;;;;;;;19.30;99.90;;;;;;5095760;28;19923;-76
2021/09/10 01:08:50;;;;;;;;;;;19.30;99.90;;;;;;5088018;28;19917;-76
2021/09/10 01:11:16;;;;;;;;;;;19.20;99.90;;;;;;5090996;28;19912;-76
2021/09/10 01:13:42;;;;;;;;;;;19.20;99.90;;;;;;5094938;28;19912;-76
2021/09/10 01:16:08;;;;;;;;;;;19.10;99.90;;;;;;5095922;28;19918;-76
2021/09/10 01:18:34;;;;;;;;;;;19.10;99.90;;;;;;5092192;28;19965;-76
2021/09/10 01:20:59;;;;;;;;;;;19.10;99.90;;;;;;5076996;28;19916;-77
2021/09/10 01:23:25;;;;;;;;;;;19.10;99.90;;;;;;5094477;28;19912;-76
2021/09/10 01:25:50;;;;;;;;;;;19.00;99.90;;;;;;5077298;28;19915;-76
2021/09/10 01:28:16;;;;;;;;;;;19.00;99.90;;;;;;5075429;28;19919;-76
2021/09/10 01:30:42;;;;;;;;;;;19.00;99.90;;;;;;5094176;28;20192;-77
2021/09/10 01:33:09;;;;;;;;;;;18.90;99.90;;;;;;5094595;28;20343;-77
2021/09/10 01:35:35;;;;;;;;;;;18.90;99.90;;;;;;5093596;28;20299;-76
2021/09/10 01:38:00;;;;;;;;;;;18.90;99.90;;;;;;5094754;28;19920;-76
2021/09/10 01:40:27;;;;;;;;;;;18.90;99.90;;;;;;5092067;28;20267;-76
2021/09/10 01:42:53;;;;;;;;;;;18.90;99.90;;;;;;5073587;28;19919;-76
2021/09/10 01:45:18;;;;;;;;;;;18.90;99.90;;;;;;5094797;28;19919;-77
2021/09/10 01:47:44;;;;;;;;;;;18.80;99.90;;;;;;5076565;28;19916;-75
2021/09/10 01:50:11;;;;;;;;;;;18.80;99.90;;;;;;5094443;28;20368;-76
2021/09/10 01:52:36;;;;;;;;;;;18.80;99.90;;;;;;5072556;28;19964;-76
2021/09/10 01:55:03;;;;;;;;;;;18.80;99.90;;;;;;5074541;28;19916;-76
2021/09/10 01:57:28;;;;;;;;;;;18.70;99.90;;;;;;5094221;28;19916;-76
2021/09/10 01:59:54;;;;;;;;;;;18.70;99.90;;;;;;5073246;28;19923;-76
2021/09/10 02:02:19;;;;;;;;;;;18.70;99.90;;;;;;5075510;28;20222;-77
2021/09/10 02:04:45;;;;;;;;;;;18.70;99.90;;;;;;5094288;28;19916;-77
2021/09/10 02:07:11;;;;;;;;;;;18.70;99.90;;;;;;5094476;28;19912;-76
2021/09/10 02:09:36;;;;;;;;;;;18.60;99.90;;;;;;5093557;28;20287;-77
2021/09/10 02:12:04;;;;;;;;;;;18.60;99.90;;;;;;5087901;28;19920;-76
2021/09/10 02:14:30;;;;;;;;;;;18.60;99.90;;;;;;5076611;28;19916;-77
2021/09/10 02:16:56;;;;;;;;;;;18.50;99.90;;;;;;5075876;28;20307;-77
2021/09/10 02:19:21;;;;;;;;;;;18.50;99.90;;;;;;5073613;28;20003;-76
2021/09/10 02:21:47;;;;;;;;;;;18.50;99.90;;;;;;5068471;28;19919;-76
2021/09/10 02:24:12;;;;;;;;;;;18.50;99.90;;;;;;5073977;28;19916;-76
2021/09/10 02:26:38;;;;;;;;;;;18.50;99.90;;;;;;5096601;28;19963;-76
2021/09/10 02:29:04;;;;;;;;;;;18.60;99.90;;;;;;5091869;28;19962;-76
2021/09/10 02:31:29;;;;;;;;;;;18.60;99.90;;;;;;5091426;28;20001;-76
2021/09/10 02:33:55;;;;;;;;;;;18.60;99.90;;;;;;5097174;28;20289;-76
2021/09/10 02:36:21;;;;;;;;;;;18.50;99.90;;;;;;5079605;28;19920;-80
2021/09/10 02:38:46;;;;;;;;;;;18.50;99.90;;;;;;5078509;28;19916;-76
2021/09/10 02:41:12;;;;;;;;;;;18.50;99.90;;;;;;5079045;28;19912;-76
2021/09/10 02:43:37;;;;;;;;;;;18.50;99.90;;;;;;5097826;28;19912;-76
2021/09/10 02:46:03;;;;;;;;;;;18.50;99.90;;;;;;5092702;28;19919;-76
2021/09/10 02:48:28;;;;;;;;;;;18.50;99.90;;;;;;5097823;28;19916;-76
2021/09/10 02:50:54;;;;;;;;;;;18.50;99.90;;;;;;5094920;28;19916;-76
2021/09/10 02:53:20;;;;;;;;;;;18.50;99.90;;;;;;5096000;28;19912;-76
2021/09/10 02:55:45;;;;;;;;;;;18.50;99.90;;;;;;5097381;28;20245;-76
2021/09/10 02:58:11;;;;;;;;;;;18.40;99.90;;;;;;5072362;28;19963;-76
2021/09/10 03:00:36;;;;;;;;;;;18.50;99.90;;;;;;5079307;28;19924;-76
2021/09/10 03:03:02;;;;;;;;;;;18.50;99.90;;;;;;5093362;28;19962;-76
2021/09/10 03:05:29;;;;;;;;;;;18.50;99.90;;;;;;5077640;28;19999;-75
2021/09/10 03:07:54;;;;;;;;;;;18.50;99.90;;;;;;5086968;28;21295;-76
2021/09/10 03:10:20;;;;;;;;;;;18.50;99.90;;;;;;5088869;28;19909;-75
2021/09/10 03:12:45;;;;;;;;;;;18.50;99.90;;;;;;5088450;28;19912;-76
2021/09/10 03:15:12;;;;;;;;;;;18.50;99.90;;;;;;5096343;28;19916;-76
2021/09/10 03:17:38;;;;;;;;;;;18.50;99.90;;;;;;5096746;28;19916;-76
2021/09/10 03:20:04;;;;;;;;;;;18.50;99.90;;;;;;5096662;28;19916;-76
2021/09/10 03:22:30;;;;;;;;;;;18.50;99.90;;;;;;5078805;28;19982;-76
2021/09/10 03:24:56;;;;;;;;;;;18.50;99.90;;;;;;5096145;28;20295;-76
2021/09/10 03:27:21;;;;;;;;;;;18.50;99.90;;;;;;5083339;28;20039;-76
2021/09/10 03:29:47;;;;;;;;;;;18.50;99.90;;;;;;5074108;28;19942;-76
2021/09/10 03:32:12;;;;;;;;;;;18.60;99.90;;;;;;5093336;28;19916;-76
2021/09/10 03:34:38;;;;;;;;;;;18.60;99.90;;;;;;5078353;28;20003;-76
2021/09/10 03:37:04;;;;;;;;;;;18.60;99.90;;;;;;5069953;28;19924;-75
2021/09/10 03:39:29;;;;;;;;;;;18.70;99.90;;;;;;5082541;28;19912;-76
2021/09/10 03:41:55;;;;;;;;;;;18.70;99.90;;;;;;5096525;28;20352;-75
2021/09/10 03:44:21;;;;;;;;;;;18.70;99.90;;;;;;5078223;28;19931;-76
2021/09/10 03:46:46;;;;;;;;;;;18.80;99.90;;;;;;5071029;28;19912;-76
2021/09/10 03:49:12;;;;;;;;;;;18.80;99.90;;;;;;5078828;28;19920;-76
2021/09/10 03:51:37;;;;;;;;;;;18.90;99.90;;;;;;5096154;28;20314;-76
2021/09/10 03:54:03;;;;;;;;;;;18.90;99.90;;;;;;5095908;28;19912;-76
2021/09/10 03:56:29;;;;;;;;;;;18.90;99.90;;;;;;5079274;28;19912;-75
2021/09/10 03:58:54;;;;;;;;;;;18.90;99.90;;;;;;5089370;28;19916;-75
2021/09/10 04:01:20;;;;;;;;;;;18.90;99.90;;;;;;5063726;28;19924;-76
2021/09/10 04:03:45;;;;;;;;;;;18.90;99.90;;;;;;5086023;28;19915;-75
2021/09/10 04:06:11;;;;;;;;;;;18.90;99.90;;;;;;5092298;28;20214;-77
2021/09/10 04:08:37;;;;;;;;;;;18.90;99.90;;;;;;5094233;28;19912;-76
2021/09/10 04:11:03;;;;;;;;;;;19.00;99.90;;;;;;5077629;28;19916;-76
2021/09/10 04:13:28;;;;;;;;;;;19.00;99.90;;;;;;5075153;28;20227;-76
2021/09/10 04:15:54;;;;;;;;;;;19.00;99.90;;;;;;5087628;28;20310;-75
2021/09/10 04:18:19;;;;;;;;;;;19.00;99.90;;;;;;5097048;28;19916;-76
2021/09/10 04:20:45;;;;;;;;;;;19.00;99.90;;;;;;5085506;28;20306;-76
2021/09/10 04:23:10;;;;;;;;;;;19.00;99.90;;;;;;5081092;28;19912;-76
2021/09/10 04:25:36;;;;;;;;;;;19.00;99.90;;;;;;5082890;28;19908;-76
2021/09/10 04:28:02;;;;;;;;;;;19.00;99.90;;;;;;5096429;28;19966;-76
2021/09/10 04:30:27;;;;;;;;;;;19.00;99.90;;;;;;5095457;28;20246;-76
2021/09/10 04:32:53;;;;;;;;;;;19.00;99.90;;;;;;5096443;28;19927;-76
2021/09/10 04:35:18;;;;;;;;;;;19.10;99.90;;;;;;5077162;28;19916;-76
2021/09/10 04:37:44;;;;;;;;;;;19.10;99.90;;;;;;5089065;28;19927;-76
2021/09/10 04:40:10;;;;;;;;;;;19.10;99.90;;;;;;5085811;28;20323;-76
2021/09/10 04:42:36;;;;;;;;;;;19.10;99.90;;;;;;5073215;28;19913;-76
2021/09/10 04:45:02;;;;;;;;;;;19.10;99.90;;;;;;5095012;28;20002;-76
2021/09/10 04:47:28;;;;;;;;;;;19.10;99.90;;;;;;5095596;28;19923;-76
2021/09/10 04:49:54;;;;;;;;;;;19.10;99.90;;;;;;5087367;28;19928;-75
2021/09/10 04:52:19;;;;;;;;;;;19.10;99.90;;;;;;5092851;28;20002;-76
2021/09/10 04:54:45;;;;;;;;;;;19.10;99.90;;;;;;5096069;28;19996;-75
2021/09/10 04:57:11;;;;;;;;;;;19.10;99.90;;;;;;5077541;28;19916;-76
2021/09/10 04:59:36;;;;;;;;;;;19.10;99.90;;;;;;5075293;28;19912;-76
2021/09/10 05:02:02;;;;;;;;;;;19.10;99.90;;;;;;5077180;28;20015;-76
2021/09/10 05:04:28;;;;;;;;;;;19.20;99.90;;;;;;5095258;28;20003;-76
2021/09/10 05:06:53;;;;;;;;;;;19.20;99.90;;;;;;5095236;28;19920;-76
2021/09/10 05:09:19;;;;;;;;;;;19.20;99.90;;;;;;5095463;28;19955;-76
2021/09/10 05:11:44;;;;;;;;;;;19.20;99.90;;;;;;5077328;28;19916;-75
2021/09/10 05:14:10;;;;;;;;;;;19.20;99.90;;;;;;5076673;28;19923;-75
2021/09/10 05:16:36;;;;;;;;;;;19.20;99.90;;;;;;5087871;28;19916;-76
2021/09/10 05:19:02;;;;;;;;;;;19.20;99.90;;;;;;5087057;28;20211;-76
2021/09/10 05:21:28;;;;;;;;;;;19.10;99.90;;;;;;5070589;28;19912;-75
2021/09/10 05:23:53;;;;;;;;;;;19.10;99.90;;;;;;5068660;28;19923;-75
2021/09/10 05:26:19;;;;;;;;;;;19.20;99.90;;;;;;5082872;28;20368;-76
2021/09/10 05:28:45;;;;;;;;;;;19.20;99.90;;;;;;5069996;28;19974;-76
2021/09/10 05:31:11;;;;;;;;;;;19.20;99.90;;;;;;5068714;28;19916;-76
2021/09/10 05:33:37;;;;;;;;;;;19.20;99.90;;;;;;5085460;28;19920;-76
2021/09/10 05:36:02;;;;;;;;;;;19.20;99.90;;;;;;5088138;28;19916;-75
2021/09/10 05:38:28;;;;;;;;;;;19.30;99.90;;;;;;5085948;28;19923;-76
2021/09/10 05:40:53;;;;;;;;;;;19.30;99.90;;;;;;5083994;28;19917;-75
2021/09/10 05:43:19;;;;;;;;;;;19.30;99.90;;;;;;5085629;28;19955;-75
2021/09/10 05:45:44;;;;;;;;;;;19.30;99.90;;;;;;5070033;28;19912;-76
2021/09/10 05:48:10;;;;;;;;;;;19.30;99.90;;;;;;5072358;28;20338;-76
2021/09/10 05:50:36;;;;;;;;;;;19.30;99.90;;;;;;5072203;28;20058;-75
2021/09/10 05:53:02;;;;;;;;;;;19.30;99.90;;;;;;5066640;28;19912;-75
2021/09/10 05:55:28;;;;;;;;;;;19.30;99.90;;;;;;5091002;28;19908;-76
2021/09/10 05:57:54;;;;;;;;;;;19.30;99.90;;;;;;5075291;28;19943;-75
2021/09/10 06:00:19;;;;;;;;;;;19.40;99.90;;;;;;5089796;28;19920;-76
2021/09/10 06:02:45;;;;;;;;;;;19.40;99.90;;;;;;5093595;28;19919;-75
2021/09/10 06:05:11;;;;;;;;;;;19.40;99.90;;;;;;5093831;28;19916;-75
2021/09/10 06:07:36;;;;;;;;;;;19.40;99.90;;;;;;5075908;28;19912;-75
2021/09/10 06:10:02;;;;;;;;;;;19.40;99.90;;;;;;5093606;28;19930;-75
2021/09/10 06:12:28;;;;;;;;;;;19.40;99.90;;;;;;5091841;28;20265;-75
2021/09/10 06:14:54;;;;;;;;;;;19.50;99.90;;;;;;5092062;28;19951;-75
2021/09/10 06:17:19;;;;;;;;;;;19.50;99.90;;;;;;5090281;28;20298;-75
2021/09/10 06:19:45;;;;;;;;;;;19.50;99.90;;;;;;5072383;28;20303;-75
2021/09/10 06:22:12;;;;;;;;;;;19.50;99.90;;;;;;5074356;28;19963;-75
2021/09/10 06:24:38;;;;;;;;;;;19.60;99.90;;;;;;5068791;28;20211;-75
2021/09/10 06:27:04;;;;;;;;;;;19.60;99.90;;;;;;5071502;28;19916;-75
2021/09/10 06:29:29;;;;;;;;;;;19.70;99.90;;;;;;5087917;28;19966;-76
2021/09/10 06:31:55;;;;;;;;;;;19.70;99.90;;;;;;5087317;28;19920;-74
2021/09/10 06:34:21;;;;;;;;;;;19.70;99.90;;;;;;5089819;28;19912;-76
2021/09/10 06:36:49;;;;;;;;;;;19.70;99.90;;;;;;5087733;28;19916;-75
2021/09/10 06:39:15;;;;;;;;;;;19.70;99.90;;;;;;5086062;28;19912;-75
2021/09/10 06:41:41;;;;;;;;;;;19.80;99.90;;;;;;5086643;28;19919;-76
2021/09/10 06:44:07;;;;;;;;;;;19.90;99.90;;;;;;5086417;28;19916;-75
2021/09/10 06:46:32;;;;;;;;;;;19.80;99.90;;;;;;5067116;28;20176;-76
2021/09/10 06:48:58;;;;;;;;;;;19.90;99.90;;;;;;5070348;28;20451;-75
2021/09/10 06:51:23;;;;;;;;;;;19.90;99.90;;;;;;5068986;28;20234;-75
2021/09/10 06:53:49;;;;;;;;;;;20.00;99.90;;;;;;5068051;28;19921;-76
2021/09/10 06:56:14;;;;;;;;;;;20.00;99.90;;;;;;5089127;28;20252;-76
2021/09/10 06:58:40;;;;;;;;;;;20.00;99.90;;;;;;5068153;28;20325;-76
2021/09/10 07:01:09;;;;;;;;;;;20.00;99.90;;;;;;5084879;28;19928;-76
2021/09/10 07:03:35;;;;;;;;;;;20.10;99.90;;;;;;5086001;28;19912;-76
2021/09/10 07:06:01;;;;;;;;;;;20.10;99.90;;;;;;5066765;28;20323;-76
2021/09/10 07:08:27;;;;;;;;;;;20.20;99.90;;;;;;5088957;28;20200;-75
2021/09/10 07:10:52;;;;;;;;;;;20.20;99.90;;;;;;5088932;28;20029;-75
2021/09/10 07:13:18;;;;;;;;;;;20.30;99.90;;;;;;5090505;28;19916;-76
2021/09/10 07:15:43;;;;;;;;;;;20.40;99.90;;;;;;5089798;28;20490;-75
2021/09/10 07:18:09;;;;;;;;;;;20.50;99.90;;;;;;5083251;28;20040;-75
2021/09/10 07:20:34;;;;;;;;;;;20.60;99.90;;;;;;5088017;28;20298;-76
2021/09/10 07:23:00;;;;;;;;;;;20.60;99.90;;;;;;5071228;28;19916;-76
2021/09/10 07:25:26;;;;;;;;;;;20.60;99.90;;;;;;5073503;28;19944;-76
2021/09/10 07:27:51;;;;;;;;;;;20.80;99.90;;;;;;5073066;28;20187;-76
2021/09/10 07:30:17;;;;;;;;;;;20.80;99.90;;;;;;5090499;28;19966;-76
2021/09/10 07:32:42;;;;;;;;;;;21.00;99.90;;;;;;5071524;28;19916;-76
2021/09/10 07:35:08;;;;;;;;;;;21.10;99.90;;;;;;5072988;28;19916;-76
2021/09/10 07:37:34;;;;;;;;;;;21.30;99.90;;;;;;5073710;28;19924;-76
2021/09/10 07:40:00;;;;;;;;;;;21.40;99.90;;;;;;5087667;28;20211;-76
2021/09/10 07:42:25;;;;;;;;;;;21.40;99.90;;;;;;5076641;28;19919;-76
2021/09/10 07:44:51;;;;;;;;;;;21.50;99.90;;;;;;5089296;28;19915;-76
2021/09/10 07:47:18;;;;;;;;;;;21.50;99.90;;;;;;5093119;28;20207;-76
2021/09/10 07:49:44;;;;;;;;;;;21.70;99.90;;;;;;5096825;28;19916;-76
2021/09/10 07:52:09;;;;;;;;;;;21.70;99.90;;;;;;5078305;28;19958;-77
2021/09/10 07:54:35;;;;;;;;;;;21.70;99.90;;;;;;5087344;28;19916;-76
2021/09/10 07:57:00;;;;;;;;;;;21.60;99.90;;;;;;5096004;28;19923;-76
2021/09/10 07:59:26;;;;;;;;;;;21.50;99.90;;;;;;5077910;28;20299;-76
2021/09/10 08:01:51;;;;;;;;;;;21.40;99.90;;;;;;5078191;28;19923;-76
2021/09/10 08:04:17;;;;;;;;;;;21.30;99.90;;;;;;5075447;28;20244;-75
2021/09/10 08:06:43;;;;;;;;;;;21.20;99.90;;;;;;5083232;28;19928;-77
2021/09/10 08:09:08;;;;;;;;;;;21.30;99.90;;;;;;5088790;28;20269;-76
2021/09/10 08:11:34;;;;;;;;;;;21.50;99.90;;;;;;5094382;28;19955;-76
2021/09/10 08:14:00;;;;;;;;;;;21.60;99.90;;;;;;5088121;28;19935;-76
2021/09/10 08:16:26;;;;;;;;;;;21.70;99.90;;;;;;5076089;28;19908;-76
2021/09/10 08:18:51;;;;;;;;;;;21.80;99.90;;;;;;5089211;28;19913;-76
2021/09/10 08:21:17;;;;;;;;;;;21.90;99.90;;;;;;5089053;28;19916;-76
2021/09/10 08:23:43;;;;;;;;;;;22.10;99.90;;;;;;5091763;28;19916;-76
2021/09/10 08:26:08;;;;;;;;;;;22.40;99.90;;;;;;5076002;28;19916;-77
2021/09/10 08:28:34;;;;;;;;;;;22.60;99.90;;;;;;5087285;28;20325;-76
2021/09/10 08:31:00;;;;;;;;;;;22.80;99.90;;;;;;5073458;28;19920;-76
2021/09/10 08:33:25;;;;;;;;;;;22.90;99.90;;;;;;5094278;28;19912;-76
2021/09/10 08:35:51;;;;;;;;;;;23.00;99.90;;;;;;5077747;28;19908;-77
2021/09/10 08:38:17;;;;;;;;;;;23.00;99.90;;;;;;5089694;28;19963;-76
2021/09/10 08:40:44;;;;;;;;;;;22.90;99.90;;;;;;5066629;28;19916;-77
2021/09/10 08:43:09;;;;;;;;;;;22.80;99.90;;;;;;5071832;28;19941;-76
2021/09/10 08:45:35;;;;;;;;;;;22.70;99.90;;;;;;5091031;28;19920;-76
2021/09/10 08:48:01;;;;;;;;;;;22.60;99.90;;;;;;5076828;28;19916;-77
2021/09/10 08:50:26;;;;;;;;;;;22.60;99.90;;;;;;5083987;28;19908;-76
2021/09/10 08:52:52;;;;;;;;;;;22.70;99.90;;;;;;5093080;28;20307;-77
2021/09/10 08:55:19;;;;;;;;;;;22.80;99.90;;;;;;5096031;28;19908;-76
2021/09/10 08:57:53;;;;;;;;;;;23.00;99.90;;;;;;5071325;28;19951;-76
2021/09/10 09:00:26;;;;;;;;;;;23.20;99.90;;;;;;5083714;28;19969;-77
2021/09/10 09:03:02;;;;;;;;;;;23.30;99.90;;;;;;5084769;28;19926;-76
2021/09/10 09:05:28;;;;;;;;;;;23.40;99.90;;;;;;5083761;28;19920;-76
2021/09/10 09:08:13;;;;;;;;;;;23.40;99.90;;;;;;5083556;28;19927;-76
2021/09/10 09:10:51;;;;;;;;;;;23.30;99.90;;;;;;5082331;28;20315;-77
2021/09/10 09:13:17;;;;;;;;;;;23.30;99.90;;;;;;5083493;28;19920;-77
2021/09/10 09:15:43;;;;;;;;;;;23.20;99.90;;;;;;5065524;28;19950;-76
2021/09/10 09:18:09;;;;;;;;;;;23.20;99.90;;;;;;5080535;28;19973;-76
2021/09/10 09:20:34;;;;;;;;;;;23.20;99.90;;;;;;5065523;28;19916;-76
2021/09/10 09:23:00;;;;;;;;;;;23.30;99.90;;;;;;5062168;28;19916;-77
2021/09/10 09:25:30;;;;;;;;;;;23.40;99.90;;;;;;5095104;28;20253;-77
2021/09/10 09:28:13;;;;;;;;;;;23.50;99.90;;;;;;5094129;28;19912;-77
2021/09/10 09:30:39;;;;;;;;;;;23.70;99.90;;;;;;5091288;28;19965;-77
2021/09/10 09:33:06;;;;;;;;;;;23.90;99.90;;;;;;5073610;28;19912;-76
2021/09/10 09:35:32;;;;;;;;;;;24.00;99.90;;;;;;5075458;28;19928;-77
2021/09/10 09:37:58;;;;;;;;;;;24.00;99.90;;;;;;5093614;28;19967;-77
2021/09/10 09:40:33;;;;;;;;;;;24.10;99.90;;;;;;5093126;28;20366;-74
2021/09/10 09:42:59;;;;;;;;;;;24.20;99.90;;;;;;5094265;28;19983;-77
2021/09/10 09:45:26;;;;;;;;;;;24.30;99.90;;;;;;5071330;28;19912;-76
2021/09/10 09:47:52;;;;;;;;;;;24.30;99.90;;;;;;5091347;28;20006;-77
2021/09/10 09:50:19;;;;;;;;;;;24.20;99.90;;;;;;5074790;28;20007;-77
2021/09/10 09:52:47;;;;;;;;;;;24.10;99.90;;;;;;5092108;28;19922;-76
2021/09/10 09:55:13;;;;;;;;;;;24.20;99.90;;;;;;5067711;28;19920;-78
2021/09/10 09:57:39;;;;;;;;;;;24.30;99.90;;;;;;5076390;28;19924;-77
2021/09/10 10:00:05;;;;;;;;;;;24.30;99.90;;;;;;5093250;28;19928;-77
2021/09/10 10:02:31;;;;;;;;;;;24.30;99.90;;;;;;5093922;28;19916;-77
2021/09/10 10:04:57;;;;;;;;;;;24.30;99.90;;;;;;5093701;28;19931;-77
2021/09/10 10:07:23;;;;;;;;;;;24.30;99.90;;;;;;5073561;28;19919;-76
2021/09/10 10:09:51;;;;;;;;;;;24.30;99.90;;;;;;5073633;28;20011;-77
2021/09/10 10:12:21;;;;;;;;;;;24.30;99.90;;;;;;5075854;28;19919;-76
2021/09/10 10:14:47;;;;;;;;;;;24.40;99.90;;;;;;5091755;28;19912;-77
2021/09/10 10:17:30;;;;;;;;;;;24.40;99.90;;;;;;5083250;28;19916;-77
2021/09/10 10:19:56;;;;;;;;;;;24.50;99.90;;;;;;5093304;28;19920;-74
2021/09/10 10:22:32;;;;;;;;;;;24.50;99.90;;;;;;5093894;28;19913;-77
2021/09/10 10:24:58;;;;;;;;;;;24.50;99.90;;;;;;5075308;28;19920;-77
2021/09/10 10:27:24;;;;;;;;;;;24.50;99.90;;;;;;5064929;28;19916;-76
2021/09/10 10:29:49;;;;;;;;;;;24.40;99.90;;;;;;5070119;28;19965;-76
2021/09/10 10:32:27;;;;;;;;;;;24.50;99.90;;;;;;5094278;28;19912;-75
2021/09/10 10:35:11;;;;;;;;;;;24.70;99.90;;;;;;5089681;28;20273;-75
2021/09/10 10:37:38;;;;;;;;;;;24.80;99.90;;;;;;5071079;28;20046;-76
2021/09/10 10:40:22;;;;;;;;;;;24.80;99.90;;;;;;5087025;28;19939;-74
2021/09/10 10:42:49;;;;;;;;;;;24.80;99.90;;;;;;5071309;28;19920;-76
2021/09/10 10:45:14;;;;;;;;;;;24.70;99.90;;;;;;5073776;28;19951;-77
2021/09/10 10:47:40;;;;;;;;;;;24.60;99.90;;;;;;5084338;28;19963;-77
2021/09/10 10:50:25;;;;;;;;;;;24.50;99.90;;;;;;5095300;28;20547;-76
2021/09/10 10:52:55;;;;;;;;;;;24.30;99.90;;;;;;5068188;28;19986;-77
2021/09/10 10:55:22;;;;;;;;;;;24.20;99.90;;;;;;5065645;28;19919;-77
2021/09/10 10:57:52;;;;;;;;;;;24.10;99.90;;;;;;5094720;28;19916;-76
2021/09/10 11:00:30;;;;;;;;;;;24.00;99.90;;;;;;5085564;28;19955;-76
2021/09/10 11:03:31;;;;;;;;;;;23.90;99.90;;;;;;5071007;28;19995;-77
2021/09/10 11:05:57;;;;;;;;;;;23.80;99.90;;;;;;5032901;28;19912;-76
2021/09/10 11:08:36;;;;;;;;;;;23.70;99.90;;;;;;5035758;28;19928;-76
2021/09/10 11:11:02;;;;;;;;;;;23.70;99.90;;;;;;5011447;28;19913;-77
2021/09/10 11:13:28;;;;;;;;;;;23.60;99.90;;;;;;5022803;28;19943;-77
2021/09/10 11:15:55;;;;;;;;;;;23.60;99.90;;;;;;5045327;28;19912;-77
2021/09/10 11:18:23;;;;;;;;;;;23.60;99.90;;;;;;5024084;28;20016;-78
2021/09/10 11:20:50;;;;;;;;;;;23.70;99.90;;;;;;5011413;28;20019;-77
2021/09/10 11:23:27;;;;;;;;;;;23.80;99.90;;;;;;5017308;28;19991;-77
2021/09/10 11:25:56;;;;;;;;;;;23.90;99.90;;;;;;5036342;28;20320;-76
2021/09/10 11:28:22;;;;;;;;;;;24.00;99.90;;;;;;5036219;28;19919;-77
2021/09/10 11:30:49;;;;;;;;;;;24.00;99.90;;;;;;5039315;28;20012;-77
2021/09/10 11:33:15;;;;;;;;;;;24.00;99.90;;;;;;5035276;28;19957;-76
2021/09/10 11:35:42;;;;;;;;;;;24.00;99.90;;;;;;5013364;28;20002;-74
2021/09/10 11:38:07;;;;;;;;;;;24.00;99.90;;;;;;5039723;28;19920;-77
2021/09/10 11:40:38;;;;;;;;;;;23.90;99.90;;;;;;5071957;28;19963;-76
2021/09/10 11:43:08;;;;;;;;;;;24.00;99.90;;;;;;5076029;28;19916;-75
2021/09/10 11:45:35;;;;;;;;;;;24.10;99.90;;;;;;5078626;28;19916;-74
2021/09/10 11:48:04;;;;;;;;;;;24.10;99.90;;;;;;5093252;28;19920;-76
2021/09/10 11:50:47;;;;;;;;;;;24.20;99.90;;;;;;5068923;28;19916;-77
2021/09/10 11:53:20;;;;;;;;;;;24.30;99.90;;;;;;5084400;28;19927;-75
2021/09/10 11:56:00;;;;;;;;;;;24.50;99.90;;;;;;5103890;28;20311;-76
2021/09/10 11:58:33;;;;;;;;;;;24.70;99.90;;;;;;5096091;28;20214;-77
2021/09/10 12:01:25;;;;;;;;;;;24.70;99.90;;;;;;5075144;28;19928;-77
2021/09/10 12:04:01;;;;;;;;;;;24.60;99.90;;;;;;5066852;28;19917;-77
2021/09/10 12:06:33;;;;;;;;;;;24.40;99.90;;;;;;5073979;28;19912;-77
2021/09/10 12:09:05;;;;;;;;;;;24.30;99.90;;;;;;5072404;28;20025;-78
2021/09/10 12:11:31;;;;;;;;;;;24.00;99.90;;;;;;5090868;28;19912;-77
2021/09/10 12:13:57;;;;;;;;;;;24.00;99.90;;;;;;5075730;28;19912;-77
2021/09/10 12:16:22;;;;;;;;;;;24.00;99.90;;;;;;5082845;28;20311;-77
2021/09/10 12:19:04;;;;;;;;;;;24.00;99.90;;;;;;5096373;28;19920;-76
2021/09/10 12:21:30;;;;;;;;;;;24.00;99.90;;;;;;5087945;28;19912;-77
2021/09/10 12:24:09;;;;;;;;;;;24.00;99.90;;;;;;5093104;28;19912;-77
2021/09/10 12:26:47;;;;;;;;;;;24.00;99.90;;;;;;5073399;28;20208;-77
2021/09/10 12:29:17;;;;;;;;;;;24.00;99.90;;;;;;5093325;28;20302;-78
2021/09/10 12:31:43;;;;;;;;;;;24.00;99.90;;;;;;5070396;28;19916;-77
2021/09/10 12:34:08;;;;;;;;;;;24.00;99.90;;;;;;5058939;28;20314;-78
2021/09/10 12:36:34;;;;;;;;;;;23.90;99.90;;;;;;5087821;28;20294;-75
2021/09/10 12:38:59;;;;;;;;;;;23.90;99.90;;;;;;5075599;28;19931;-75
2021/09/10 12:41:25;;;;;;;;;;;23.80;99.90;;;;;;5095668;28;19957;-77
2021/09/10 12:43:52;;;;;;;;;;;23.80;99.90;;;;;;5096519;28;19916;-78
2021/09/10 12:46:17;;;;;;;;;;;23.60;99.90;;;;;;5091981;28;19908;-76
2021/09/10 12:48:43;;;;;;;;;;;23.50;99.90;;;;;;5076809;28;19923;-78
2021/09/10 12:51:09;;;;;;;;;;;23.40;99.90;;;;;;5092807;28;19922;-77
2021/09/10 12:53:35;;;;;;;;;;;23.40;99.90;;;;;;5094979;28;19916;-76
2021/09/10 12:56:00;;;;;;;;;;;23.50;99.90;;;;;;5095625;28;19916;-77
2021/09/10 12:58:26;;;;;;;;;;;23.50;99.90;;;;;;5095819;28;20671;-76
2021/09/10 13:00:52;;;;;;;;;;;23.40;99.90;;;;;;5077314;28;19924;-77
2021/09/10 13:03:17;;;;;;;;;;;23.50;99.90;;;;;;5095705;28;20262;-77
2021/09/10 13:05:43;;;;;;;;;;;23.50;99.90;;;;;;5094626;28;20259;-76
2021/09/10 13:08:08;;;;;;;;;;;23.40;99.90;;;;;;5094886;28;19947;-76
2021/09/10 13:10:35;;;;;;;;;;;23.40;99.90;;;;;;5095725;28;19958;-76
2021/09/10 13:13:01;;;;;;;;;;;23.30;99.90;;;;;;5076745;28;19920;-78
2021/09/10 13:15:26;;;;;;;;;;;23.20;99.90;;;;;;5077473;28;19919;-77
2021/09/10 13:17:52;;;;;;;;;;;23.20;99.90;;;;;;5077512;28;19916;-77
2021/09/10 13:20:17;;;;;;;;;;;23.20;99.90;;;;;;5095226;28;20006;-78
2021/09/10 13:22:43;;;;;;;;;;;23.10;99.90;;;;;;5094924;28;19931;-77
2021/09/10 13:25:09;;;;;;;;;;;23.10;99.90;;;;;;5094514;28;19919;-78
2021/09/10 13:27:34;;;;;;;;;;;23.00;99.90;;;;;;5077537;28;19908;-75
2021/09/10 13:30:00;;;;;;;;;;;23.00;99.90;;;;;;5094347;28;20310;-77
2021/09/10 13:32:26;;;;;;;;;;;23.00;99.90;;;;;;5081017;28;19951;-77
2021/09/10 13:34:52;;;;;;;;;;;23.00;99.90;;;;;;5088793;28;20338;-77
2021/09/10 13:37:18;;;;;;;;;;;23.00;99.90;;;;;;5075012;28;19945;-77
2021/09/10 13:39:50;;;;;;;;;;;22.90;99.90;;;;;;5084611;28;19988;-77
2021/09/10 13:42:16;;;;;;;;;;;22.90;99.90;;;;;;5072601;28;19912;-77
2021/09/10 13:44:41;;;;;;;;;;;22.90;99.90;;;;;;5095300;28;19915;-77
2021/09/10 13:47:07;;;;;;;;;;;22.90;99.90;;;;;;5076738;28;20580;-77
2021/09/10 13:49:33;;;;;;;;;;;22.80;99.90;;;;;;5091451;28;20227;-78
2021/09/10 13:51:58;;;;;;;;;;;22.70;99.90;;;;;;5094419;28;19916;-78
2021/09/10 13:54:24;;;;;;;;;;;22.70;99.90;;;;;;5075002;28;19920;-75
2021/09/10 13:56:50;;;;;;;;;;;22.70;99.90;;;;;;5093458;28;20311;-78
2021/09/10 13:59:15;;;;;;;;;;;22.60;99.90;;;;;;5075461;28;19959;-77
2021/09/10 14:01:41;;;;;;;;;;;22.60;99.90;;;;;;5094238;28;20235;-77
2021/09/10 14:04:06;;;;;;;;;;;22.60;99.90;;;;;;5078667;28;19947;-76
2021/09/10 14:06:32;;;;;;;;;;;22.60;99.90;;;;;;5088702;28;19970;-76
2021/09/10 14:08:58;;;;;;;;;;;22.50;99.90;;;;;;5067746;28;19916;-74
2021/09/10 14:11:23;;;;;;;;;;;22.40;99.90;;;;;;5070173;28;19920;-74
2021/09/10 14:13:49;;;;;;;;;;;22.20;99.90;;;;;;5085866;28;20051;-74